createdAt,value
2022-07-29T00:02:47.321Z,23.65
2022-07-29T00:05:49.854Z,23.76
2022-07-29T00:08:52.073Z,23.82
2022-07-29T00:11:57.791Z,23.83
2022-07-29T00:14:59.958Z,23.89
2022-07-29T00:18:02.388Z,23.86
2022-07-29T00:21:04.507Z,23.91
2022-07-29T00:24:07.070Z,23.85
2022-07-29T00:27:09.230Z,23.75
2022-07-29T00:30:12.025Z,23.80
2022-07-29T00:33:14.195Z,23.77
2022-07-29T00:36:16.652Z,23.76
2022-07-29T00:39:18.772Z,23.76
2022-07-29T00:42:21.175Z,23.80
2022-07-29T00:45:23.454Z,23.65
2022-07-29T00:48:25.882Z,23.48
2022-07-29T00:51:28.390Z,23.71
2022-07-29T00:54:31.252Z,23.70
2022-07-29T00:57:34.330Z,23.72
2022-07-29T01:00:37.763Z,23.69
2022-07-29T01:03:39.941Z,23.56
2022-07-29T01:06:43.566Z,23.57
2022-07-29T01:09:47.323Z,23.62
2022-07-29T01:12:52.243Z,23.68
2022-07-29T01:16:00.282Z,23.64
2022-07-29T01:19:26.763Z,23.63
2022-07-29T01:22:35.282Z,23.65
2022-07-29T01:25:59.052Z,23.69
2022-07-29T01:29:19.931Z,23.69
2022-07-29T01:32:29.589Z,23.58
2022-07-29T01:35:41.947Z,23.42
2022-07-29T01:38:51.396Z,23.52
2022-07-29T01:42:13.941Z,23.41
2022-07-29T01:45:20.851Z,23.52
2022-07-29T01:48:28.520Z,23.64
2022-07-29T01:51:43.800Z,23.65
2022-07-29T01:54:58.221Z,23.50
2022-07-29T01:58:04.079Z,23.32
2022-07-29T02:01:07.754Z,23.16
2022-07-29T02:04:26.636Z,23.14
2022-07-29T02:07:33.844Z,22.97
2022-07-29T02:10:38.130Z,23.13
2022-07-29T02:13:41.983Z,23.27
2022-07-29T02:16:46.299Z,23.24
2022-07-29T02:19:49.907Z,23.12
2022-07-29T02:22:55.636Z,22.96
2022-07-29T02:26:00.109Z,22.87
2022-07-29T02:29:03.442Z,22.80
2022-07-29T02:32:08.287Z,22.77
2022-07-29T02:35:13.618Z,22.76
2022-07-29T02:38:36.532Z,22.66
2022-07-29T02:41:51.055Z,22.61
2022-07-29T02:44:53.377Z,22.62
2022-07-29T02:47:58.932Z,22.65
2022-07-29T02:51:43.468Z,22.54
2022-07-29T02:55:10.872Z,22.43
2022-07-29T02:58:30.005Z,22.39
2022-07-29T03:01:33.992Z,22.35
2022-07-29T03:04:38.654Z,22.38
2022-07-29T03:07:43.002Z,22.32
2022-07-29T03:10:46.673Z,22.25
2022-07-29T03:13:49.591Z,22.18
2022-07-29T03:16:52.667Z,22.27
2022-07-29T03:19:55.599Z,22.16
2022-07-29T03:22:57.651Z,22.07
2022-07-29T03:26:00.137Z,22.03
2022-07-29T03:29:02.256Z,22.03
2022-07-29T03:32:07.959Z,22.08
2022-07-29T03:35:10.711Z,22.10
2022-07-29T03:38:13.144Z,22.16
2022-07-29T03:41:17.354Z,22.20
2022-07-29T03:44:27.070Z,22.19
2022-07-29T03:47:50.055Z,22.20
2022-07-29T03:50:53.720Z,22.29
2022-07-29T03:53:55.956Z,22.27
2022-07-29T03:57:01.909Z,22.30
2022-07-29T04:00:06.293Z,22.33
2022-07-29T04:03:10.817Z,22.64
2022-07-29T04:06:14.001Z,23.58
2022-07-29T04:09:16.466Z,23.93
2022-07-29T04:12:18.618Z,24.07
2022-07-29T04:15:21.195Z,23.92
2022-07-29T04:18:23.574Z,23.67
2022-07-29T04:21:26.012Z,23.50
2022-07-29T04:24:28.617Z,23.54
2022-07-29T04:27:31.001Z,23.59
2022-07-29T04:30:34.493Z,23.65
2022-07-29T04:33:37.115Z,23.63
2022-07-29T04:36:39.282Z,23.52
2022-07-29T04:39:41.708Z,23.60
2022-07-29T04:42:46.380Z,23.65
2022-07-29T04:45:49.697Z,23.59
2022-07-29T04:48:51.949Z,23.63
2022-07-29T04:51:54.392Z,23.77
2022-07-29T04:54:56.514Z,23.70
2022-07-29T04:57:58.898Z,23.72
2022-07-29T05:01:01.141Z,23.99
2022-07-29T05:04:03.700Z,24.04
2022-07-29T05:07:05.822Z,24.16
2022-07-29T05:10:08.965Z,24.56
2022-07-29T05:13:11.095Z,24.77
2022-07-29T05:16:14.127Z,24.87
2022-07-29T05:19:16.441Z,24.81
2022-07-29T05:22:20.282Z,25.21
2022-07-29T05:25:22.891Z,25.35
2022-07-29T05:28:25.277Z,25.52
2022-07-29T05:31:27.433Z,25.45
2022-07-29T05:34:29.942Z,25.62
2022-07-29T05:37:32.155Z,26.03
2022-07-29T05:40:35.128Z,26.31
2022-07-29T05:43:37.389Z,26.73
2022-07-29T05:46:39.835Z,27.40
2022-07-29T05:49:41.959Z,30.54
2022-07-29T05:52:44.664Z,34.22
2022-07-29T05:55:46.950Z,37.34
2022-07-29T05:58:49.426Z,37.13
2022-07-29T06:01:51.620Z,37.37
2022-07-29T06:04:54.685Z,36.55
2022-07-29T06:07:56.757Z,37.23
2022-07-29T06:10:59.077Z,36.63
2022-07-29T06:14:01.251Z,38.09
2022-07-29T06:17:03.623Z,39.20
2022-07-29T06:20:07.561Z,40.12
2022-07-29T06:23:10.946Z,38.55
2022-07-29T06:26:13.059Z,38.33
2022-07-29T06:29:15.495Z,38.97
2022-07-29T06:32:17.846Z,37.58
2022-07-29T06:35:38.765Z,38.58
2022-07-29T06:38:49.187Z,36.97
2022-07-29T06:41:54.964Z,36.68
2022-07-29T06:45:00.764Z,37.49
2022-07-29T06:48:03.318Z,36.53
2022-07-29T06:51:06.626Z,37.54
2022-07-29T06:54:09.091Z,39.26
2022-07-29T06:57:11.207Z,40.24
2022-07-29T07:00:14.545Z,41.91
2022-07-29T07:03:18.127Z,44.21
2022-07-29T07:06:20.577Z,43.35
2022-07-29T07:09:23.382Z,41.92
2022-07-29T07:12:26.156Z,40.55
2022-07-29T07:15:39.200Z,43.37
2022-07-29T07:18:44.143Z,41.84
2022-07-29T07:21:46.692Z,42.53
2022-07-29T07:24:49.104Z,42.57
2022-07-29T07:27:51.257Z,40.76
2022-07-29T07:30:53.655Z,39.56
2022-07-29T07:33:55.906Z,39.94
2022-07-29T07:36:58.317Z,38.63
2022-07-29T07:40:00.628Z,35.58
2022-07-29T07:43:03.066Z,32.43
2022-07-29T07:46:05.400Z,31.42
2022-07-29T07:49:07.777Z,31.67
2022-07-29T07:52:10.628Z,31.59
2022-07-29T07:55:13.724Z,31.13
2022-07-29T07:58:15.862Z,31.29
2022-07-29T08:01:19.997Z,32.08
2022-07-29T08:04:27.277Z,31.58
2022-07-29T08:07:30.547Z,30.95
2022-07-29T08:10:51.585Z,30.75
2022-07-29T08:13:53.743Z,31.37
2022-07-29T08:16:56.231Z,31.37
2022-07-29T08:19:58.392Z,31.38
2022-07-29T08:23:00.841Z,31.59
2022-07-29T08:26:02.970Z,31.30
2022-07-29T08:29:05.377Z,31.39
2022-07-29T08:32:07.641Z,31.35
2022-07-29T08:35:10.107Z,31.42
2022-07-29T08:38:12.268Z,30.95
2022-07-29T08:41:14.734Z,30.29
2022-07-29T08:44:18.185Z,30.44
2022-07-29T08:47:33.969Z,30.54
2022-07-29T08:50:38.903Z,30.24
2022-07-29T08:53:44.054Z,30.36
2022-07-29T08:56:50.301Z,30.52
2022-07-29T08:59:55.148Z,30.80
2022-07-29T09:03:00.108Z,30.62
2022-07-29T09:06:04.654Z,30.89
2022-07-29T09:09:08.506Z,30.79
2022-07-29T09:12:12.441Z,30.95
2022-07-29T09:15:14.625Z,31.40
2022-07-29T09:18:41.289Z,32.38
2022-07-29T09:21:58.733Z,33.86
2022-07-29T09:25:01.122Z,34.61
2022-07-29T09:28:15.559Z,37.40
2022-07-29T09:31:18.011Z,38.36
2022-07-29T09:34:38.501Z,39.85
2022-07-29T09:37:41.094Z,40.72
2022-07-29T09:40:56.566Z,40.63
2022-07-29T09:44:02.961Z,39.66
2022-07-29T09:47:09.276Z,41.61
2022-07-29T09:50:12.501Z,42.64
2022-07-29T09:53:35.053Z,40.86
2022-07-29T09:56:42.146Z,42.70
2022-07-29T09:59:57.278Z,42.47
2022-07-29T10:03:02.045Z,43.21
2022-07-29T10:06:09.899Z,41.25
2022-07-29T10:09:12.286Z,41.36
2022-07-29T10:12:15.445Z,41.45
2022-07-29T10:15:21.826Z,41.22
2022-07-29T10:18:24.289Z,42.34
2022-07-29T10:21:35.825Z,43.46
2022-07-29T10:24:39.710Z,42.20
2022-07-29T10:27:44.182Z,41.83
2022-07-29T10:30:47.822Z,41.77
2022-07-29T10:34:17.909Z,41.25
2022-07-29T10:37:46.066Z,40.90
2022-07-29T10:41:22.378Z,40.23
2022-07-29T10:44:28.333Z,40.32
2022-07-29T10:47:31.586Z,38.87
2022-07-29T10:50:54.182Z,39.50
2022-07-29T10:54:00.730Z,40.81
2022-07-29T10:57:17.107Z,41.20
2022-07-29T11:00:19.599Z,43.20
2022-07-29T11:03:41.526Z,40.90
2022-07-29T11:07:10.744Z,37.57
2022-07-29T11:10:16.434Z,37.67
2022-07-29T11:13:55.789Z,36.30
2022-07-29T11:17:03.381Z,36.33
2022-07-29T11:20:44.182Z,36.84
2022-07-29T11:23:47.138Z,38.46
2022-07-29T11:27:18.228Z,39.61
2022-07-29T11:30:42.591Z,40.65
2022-07-29T11:33:56.362Z,41.14
2022-07-29T11:37:17.772Z,41.94
2022-07-29T11:40:21.444Z,42.79
2022-07-29T11:43:52.107Z,42.52
2022-07-29T11:46:55.371Z,41.41
2022-07-29T11:49:59.912Z,41.44
2022-07-29T11:53:08.804Z,40.34
2022-07-29T11:56:17.190Z,39.72
2022-07-29T11:59:21.075Z,39.98
2022-07-29T12:02:37.865Z,40.14
2022-07-29T12:05:48.456Z,41.09
2022-07-29T12:08:54.302Z,40.25
2022-07-29T12:12:04.655Z,40.19
2022-07-29T12:15:20.905Z,41.53
2022-07-29T12:18:25.565Z,42.11
2022-07-29T12:21:28.932Z,42.42
2022-07-29T12:24:45.131Z,42.89
2022-07-29T12:27:48.685Z,43.24
2022-07-29T12:30:52.414Z,41.50
2022-07-29T12:33:54.983Z,40.58
2022-07-29T12:36:59.470Z,40.50
2022-07-29T12:40:02.750Z,42.03
2022-07-29T12:43:08.711Z,41.90
2022-07-29T12:46:15.934Z,40.06
2022-07-29T12:49:24.793Z,38.54
2022-07-29T12:52:27.841Z,38.64
2022-07-29T12:55:41.432Z,40.82
2022-07-29T12:58:44.529Z,41.16
2022-07-29T13:01:50.404Z,42.14
2022-07-29T13:05:02.831Z,42.55
2022-07-29T13:08:20.351Z,41.39
2022-07-29T13:11:37.156Z,40.76
2022-07-29T13:14:41.813Z,39.83
2022-07-29T13:17:44.530Z,39.07
2022-07-29T13:20:50.523Z,38.62
2022-07-29T13:23:52.500Z,38.66
2022-07-29T13:26:54.790Z,38.84
2022-07-29T13:29:58.922Z,38.32
2022-07-29T13:33:01.320Z,38.10
2022-07-29T13:36:03.527Z,38.02
2022-07-29T13:39:05.943Z,37.79
2022-07-29T13:42:10.890Z,37.42
2022-07-29T13:45:13.833Z,37.53
2022-07-29T13:48:15.814Z,36.69
2022-07-29T13:51:18.271Z,36.97
2022-07-29T13:54:20.895Z,36.84
2022-07-29T13:57:23.353Z,36.29
2022-07-29T14:00:25.541Z,36.33
2022-07-29T14:03:27.869Z,35.96
2022-07-29T14:06:30.232Z,36.44
2022-07-29T14:09:41.089Z,36.11
2022-07-29T14:12:43.985Z,36.30
2022-07-29T14:15:46.389Z,36.24
2022-07-29T14:18:48.539Z,35.95
2022-07-29T14:21:51.154Z,35.76
2022-07-29T14:24:53.572Z,35.76
2022-07-29T14:27:56.001Z,35.66
2022-07-29T14:31:00.788Z,35.62
2022-07-29T14:34:03.587Z,35.53
2022-07-29T14:37:07.028Z,35.29
2022-07-29T14:40:11.255Z,35.37
2022-07-29T14:43:14.566Z,35.73
2022-07-29T14:46:16.999Z,35.33
2022-07-29T14:49:19.191Z,35.16
2022-07-29T14:52:21.734Z,35.42
2022-07-29T14:55:24.090Z,35.14
2022-07-29T14:58:26.494Z,35.19
2022-07-29T15:01:28.759Z,34.97
2022-07-29T15:04:31.283Z,34.76
2022-07-29T15:07:33.368Z,34.22
2022-07-29T15:10:35.950Z,34.20
2022-07-29T15:13:38.077Z,34.42
2022-07-29T15:16:43.660Z,34.61
2022-07-29T15:19:48.890Z,34.47
2022-07-29T15:22:51.333Z,34.58
2022-07-29T15:25:53.443Z,34.67
2022-07-29T15:28:56.980Z,34.55
2022-07-29T15:31:59.467Z,34.65
2022-07-29T15:35:02.241Z,34.71
2022-07-29T15:38:04.425Z,34.64
2022-07-29T15:41:09.936Z,34.59
2022-07-29T15:44:12.136Z,34.41
2022-07-29T15:47:14.538Z,34.34
2022-07-29T15:50:20.027Z,34.07
2022-07-29T15:53:22.421Z,34.13
2022-07-29T15:56:25.009Z,34.04
2022-07-29T15:59:27.570Z,34.19
2022-07-29T16:02:29.703Z,33.97
2022-07-29T16:05:32.093Z,33.96
2022-07-29T16:08:34.262Z,33.72
2022-07-29T16:11:36.811Z,33.81
2022-07-29T16:14:38.894Z,33.67
2022-07-29T16:17:41.345Z,33.69
2022-07-29T16:20:43.452Z,33.64
2022-07-29T16:23:45.856Z,33.70
2022-07-29T16:26:47.947Z,33.63
2022-07-29T16:29:50.528Z,33.62
2022-07-29T16:32:52.709Z,33.40
2022-07-29T16:35:55.161Z,33.40
2022-07-29T16:38:57.289Z,33.35
2022-07-29T16:42:01.468Z,33.21
2022-07-29T16:45:05.809Z,33.14
2022-07-29T16:48:08.494Z,33.19
2022-07-29T16:51:14.497Z,32.99
2022-07-29T16:54:17.159Z,32.94
2022-07-29T16:57:19.392Z,32.70
2022-07-29T17:00:22.558Z,32.63
2022-07-29T17:03:24.725Z,32.31
2022-07-29T17:06:28.672Z,32.09
2022-07-29T17:09:32.539Z,31.89
2022-07-29T17:12:39.357Z,31.75
2022-07-29T17:15:42.987Z,31.68
2022-07-29T17:18:45.549Z,31.56
2022-07-29T17:21:49.067Z,31.35
2022-07-29T17:24:51.791Z,31.19
2022-07-29T17:28:00.558Z,31.07
2022-07-29T17:31:03.469Z,30.94
2022-07-29T17:34:06.730Z,30.81
2022-07-29T17:37:10.877Z,30.73
2022-07-29T17:40:12.990Z,30.71
2022-07-29T17:43:15.385Z,30.62
2022-07-29T17:46:18.921Z,30.50
2022-07-29T17:49:21.636Z,30.40
2022-07-29T17:52:23.762Z,30.29
2022-07-29T17:55:26.255Z,30.15
2022-07-29T17:58:28.399Z,30.12
2022-07-29T18:01:30.831Z,30.00
2022-07-29T18:04:33.719Z,29.83
2022-07-29T18:07:35.856Z,29.71
2022-07-29T18:10:38.428Z,29.54
2022-07-29T18:13:40.749Z,29.45
2022-07-29T18:16:43.225Z,29.36
2022-07-29T18:19:45.399Z,29.24
2022-07-29T18:22:47.780Z,29.16
2022-07-29T18:25:49.982Z,29.10
2022-07-29T18:28:52.382Z,29.13
2022-07-29T18:31:54.729Z,29.06
2022-07-29T18:34:57.195Z,28.96
2022-07-29T18:38:01.038Z,28.91
2022-07-29T18:41:05.085Z,28.84
2022-07-29T18:44:08.010Z,28.78
2022-07-29T18:47:11.394Z,28.68
2022-07-29T18:50:14.635Z,28.60
2022-07-29T18:53:17.980Z,28.58
2022-07-29T18:56:20.757Z,28.57
2022-07-29T18:59:23.391Z,28.59
2022-07-29T19:02:26.003Z,28.73
2022-07-29T19:05:28.392Z,28.82
2022-07-29T19:08:30.425Z,28.81
2022-07-29T19:11:32.821Z,29.18
2022-07-29T19:14:34.998Z,29.19
2022-07-29T19:17:38.630Z,29.14
2022-07-29T19:20:41.943Z,29.08
2022-07-29T19:24:02.511Z,29.11
2022-07-29T19:27:06.853Z,29.11
2022-07-29T19:30:09.781Z,28.86
2022-07-29T19:33:14.519Z,28.83
2022-07-29T19:36:17.543Z,28.79
2022-07-29T19:39:19.921Z,28.52
2022-07-29T19:42:37.663Z,28.42
2022-07-29T19:45:40.083Z,28.25
2022-07-29T19:48:42.488Z,28.16
2022-07-29T19:51:44.617Z,28.00
2022-07-29T19:54:47.026Z,28.05
2022-07-29T19:57:49.766Z,27.82
2022-07-29T20:00:52.132Z,27.78
2022-07-29T20:03:54.454Z,27.79
2022-07-29T20:07:01.377Z,27.66
2022-07-29T20:10:06.171Z,27.43
2022-07-29T20:13:08.370Z,27.33
2022-07-29T20:16:10.999Z,27.35
2022-07-29T20:19:13.597Z,27.33
2022-07-29T20:22:21.270Z,27.25
2022-07-29T20:25:23.652Z,27.13
2022-07-29T20:28:26.112Z,27.02
2022-07-29T20:31:30.448Z,26.99
2022-07-29T20:34:33.293Z,26.96
2022-07-29T20:37:56.040Z,26.96
2022-07-29T20:40:58.771Z,26.96
2022-07-29T20:44:01.677Z,26.70
2022-07-29T20:47:04.122Z,26.76
2022-07-29T20:50:06.776Z,26.65
2022-07-29T20:53:09.428Z,26.54
2022-07-29T20:56:12.451Z,26.51
2022-07-29T20:59:14.945Z,26.45
2022-07-29T21:02:17.263Z,26.44
2022-07-29T21:05:19.854Z,26.34
2022-07-29T21:08:22.285Z,26.38
2022-07-29T21:11:43.611Z,26.34
2022-07-29T21:14:47.915Z,26.24
2022-07-29T21:17:52.507Z,25.97
2022-07-29T21:20:55.378Z,25.95
2022-07-29T21:23:57.655Z,25.81
2022-07-29T21:27:21.258Z,25.78
2022-07-29T21:30:24.180Z,25.70
2022-07-29T21:33:28.059Z,25.70
2022-07-29T21:39:52.635Z,25.54
2022-07-29T21:42:55.048Z,25.39
2022-07-29T21:45:58.673Z,25.38
2022-07-29T21:49:01.180Z,25.42
2022-07-29T21:52:04.154Z,25.32
2022-07-29T21:55:07.475Z,25.12
2022-07-29T21:58:15.262Z,25.00
2022-07-29T22:01:17.685Z,25.00
2022-07-29T22:04:20.427Z,24.94
2022-07-29T22:07:22.581Z,24.88
2022-07-29T22:10:26.947Z,24.87
2022-07-29T22:13:29.059Z,24.90
2022-07-29T22:16:31.778Z,24.81
2022-07-29T22:19:33.936Z,24.62
2022-07-29T22:22:36.348Z,24.59
2022-07-29T22:25:38.473Z,24.53
2022-07-29T22:28:40.940Z,24.55
2022-07-29T22:31:43.908Z,24.37
2022-07-29T22:34:46.402Z,24.36
2022-07-29T22:37:48.432Z,24.37
2022-07-29T22:40:51.251Z,24.30
2022-07-29T22:43:53.383Z,24.28
2022-07-29T22:46:57.283Z,24.19
2022-07-29T22:49:59.466Z,24.14
2022-07-29T22:53:01.843Z,24.03
2022-07-29T22:56:04.352Z,24.00
2022-07-29T22:59:06.759Z,23.98
2022-07-29T23:02:08.898Z,24.00
2022-07-29T23:05:11.398Z,23.84
2022-07-29T23:08:13.533Z,23.87
2022-07-29T23:11:15.882Z,23.80
2022-07-29T23:14:18.069Z,23.80
2022-07-29T23:17:20.488Z,23.66
2022-07-29T23:20:22.783Z,23.68
2022-07-29T23:23:25.234Z,23.58
2022-07-29T23:26:34.369Z,23.55
2022-07-29T23:29:37.001Z,23.47
2022-07-29T23:32:39.171Z,23.42
2022-07-29T23:35:41.583Z,23.47
2022-07-29T23:38:44.203Z,23.45
2022-07-29T23:41:46.811Z,23.32
2022-07-29T23:44:48.925Z,23.23
2022-07-29T23:47:51.355Z,23.26
2022-07-29T23:50:53.502Z,23.20
2022-07-29T23:53:56.088Z,23.09
2022-07-29T23:56:58.473Z,23.23
